Time;durP1;ratioP1;P1;durP2;ratioP2;P2;SDS_P1;SDS_P2;PMS_P1;PMS_P2;Temp;Humidity;BMP_temperature;BMP_pressure;BME280_temperature;BME280_humidity;BME280_pressure;Samples;Min_cycle;Max_cycle;Signal;HPM_P1;HPM_P2
2023/12/31 00:01:26;;;;;;;5.60;1.40;;;8.40;99.90;;;;;;5141962;27;20071;-70
2023/12/31 00:03:52;;;;;;;5.15;1.75;;;8.40;99.90;;;;;;5105567;27;20534;-70
2023/12/31 00:06:18;;;;;;;2.13;1.10;;;8.40;99.90;;;;;;5104426;27;20039;-70
2023/12/31 00:08:43;;;;;;;3.00;1.02;;;8.40;99.90;;;;;;5105163;27;20469;-70
2023/12/31 00:11:10;;;;;;;4.20;1.10;;;8.30;99.90;;;;;;5105879;27;20042;-70
2023/12/31 00:13:35;;;;;;;5.43;1.38;;;8.40;99.90;;;;;;5105495;27;20047;-70
2023/12/31 00:16:01;;;;;;;4.25;1.63;;;8.40;99.90;;;;;;5104746;27;20561;-70
2023/12/31 00:18:26;;;;;;;2.90;1.20;;;8.40;99.90;;;;;;5103337;27;20116;-70
2023/12/31 00:20:52;;;;;;;2.78;1.40;;;8.40;99.90;;;;;;5100797;27;20051;-70
2023/12/31 00:23:18;;;;;;;3.45;1.20;;;8.50;99.90;;;;;;5106240;27;20105;-70
2023/12/31 00:25:44;;;;;;;2.47;1.23;;;8.50;99.90;;;;;;5104564;28;20134;-70
2023/12/31 00:28:09;;;;;;;3.35;1.17;;;8.40;99.90;;;;;;5133427;27;20094;-70
2023/12/31 00:30:35;;;;;;;2.92;1.20;;;8.50;99.90;;;;;;5096310;28;20130;-70
2023/12/31 00:33:00;;;;;;;3.03;1.55;;;8.40;99.90;;;;;;5136739;27;20067;-70
2023/12/31 00:35:26;;;;;;;3.33;1.00;;;8.50;99.90;;;;;;5100775;28;20055;-70
2023/12/31 00:37:51;;;;;;;2.80;1.10;;;8.40;99.90;;;;;;5131938;27;20098;-70
2023/12/31 00:40:17;;;;;;;3.47;0.90;;;8.40;99.90;;;;;;5103297;28;20024;-70
2023/12/31 00:42:43;;;;;;;1.42;1.00;;;8.40;99.90;;;;;;5099288;28;20485;-70
2023/12/31 00:45:09;;;;;;;3.25;1.20;;;8.40;99.90;;;;;;5137347;27;20394;-70
2023/12/31 00:47:34;;;;;;;2.30;1.00;;;8.40;99.90;;;;;;5107422;27;20389;-70
2023/12/31 00:50:00;;;;;;;2.75;0.90;;;8.40;99.90;;;;;;5097661;28;20036;-70
2023/12/31 00:52:25;;;;;;;2.75;0.85;;;8.40;99.90;;;;;;5136745;27;20101;-70
2023/12/31 00:54:52;;;;;;;3.85;0.90;;;8.40;99.90;;;;;;5107360;27;20039;-70
2023/12/31 00:57:18;;;;;;;9.50;1.45;;;8.30;99.90;;;;;;5111227;27;20088;-70
2023/12/31 00:59:44;;;;;;;4.95;1.35;;;8.40;99.90;;;;;;5132308;27;20043;-70
2023/12/31 01:02:09;;;;;;;4.47;0.90;;;8.40;99.90;;;;;;5104123;28;20546;-70
2023/12/31 01:04:36;;;;;;;1.33;0.77;;;8.40;99.90;;;;;;5101826;28;20051;-69
2023/12/31 01:07:02;;;;;;;2.22;1.00;;;8.40;99.90;;;;;;5100901;28;20061;-70
2023/12/31 01:09:27;;;;;;;3.55;0.95;;;8.40;99.90;;;;;;5099793;28;20166;-70
2023/12/31 01:11:53;;;;;;;2.47;0.82;;;8.40;99.90;;;;;;5098409;28;20552;-70
2023/12/31 01:14:19;;;;;;;2.25;1.02;;;8.40;99.90;;;;;;5135345;27;20052;-70
2023/12/31 01:16:44;;;;;;;1.85;0.98;;;8.40;99.90;;;;;;5105118;27;20039;-70
2023/12/31 01:19:10;;;;;;;3.55;1.80;;;8.40;99.90;;;;;;5099011;27;20569;-70
2023/12/31 01:21:35;;;;;;;7.63;1.45;;;8.30;99.90;;;;;;5100877;28;20047;-70
2023/12/31 01:24:01;;;;;;;2.90;1.20;;;8.40;99.90;;;;;;5101956;28;20659;-70
2023/12/31 01:26:27;;;;;;;5.05;1.08;;;8.40;99.90;;;;;;5100467;28;20123;-70
2023/12/31 01:28:52;;;;;;;1.95;0.70;;;8.30;99.90;;;;;;5132315;27;20040;-70
2023/12/31 01:31:21;;;;;;;3.80;0.93;;;8.20;99.90;;;;;;5099668;27;20070;-70
2023/12/31 01:33:47;;;;;;;1.85;0.70;;;8.30;99.90;;;;;;5134107;27;20122;-70
2023/12/31 01:36:16;;;;;;;1.17;0.90;;;8.30;99.90;;;;;;5104798;28;20115;-70
2023/12/31 01:38:43;;;;;;;1.77;0.90;;;8.30;99.90;;;;;;5101025;28;20074;-70
2023/12/31 01:41:09;;;;;;;1.85;0.73;;;8.20;99.90;;;;;;5100337;28;20039;-70
2023/12/31 01:43:35;;;;;;;1.85;0.75;;;8.20;99.90;;;;;;5086674;28;20081;-70
2023/12/31 01:46:03;;;;;;;1.08;0.57;;;8.30;99.90;;;;;;5102426;28;20503;-70
2023/12/31 01:48:29;;;;;;;3.28;0.68;;;8.30;99.90;;;;;;5104572;28;20031;-70
2023/12/31 01:50:55;;;;;;;1.02;0.63;;;8.30;99.90;;;;;;5101283;28;20062;-70
2023/12/31 01:53:21;;;;;;;4.72;0.70;;;8.40;99.90;;;;;;5097913;28;20093;-70
2023/12/31 01:55:49;;;;;;;1.15;0.70;;;8.30;99.90;;;;;;5101350;28;20047;-70
2023/12/31 01:58:16;;;;;;;1.80;0.77;;;8.30;99.90;;;;;;5132992;27;20036;-70
2023/12/31 02:00:41;;;;;;;1.13;0.50;;;8.20;99.90;;;;;;5101688;28;20047;-70
2023/12/31 02:03:07;;;;;;;0.93;0.43;;;8.30;99.90;;;;;;5136202;27;20036;-70
2023/12/31 02:05:33;;;;;;;1.60;0.50;;;8.30;99.90;;;;;;5100405;28;20043;-70
2023/12/31 02:07:59;;;;;;;1.02;0.60;;;8.30;99.90;;;;;;5102935;28;20097;-70
2023/12/31 02:10:24;;;;;;;1.83;0.77;;;8.30;99.90;;;;;;5099743;28;20047;-70
2023/12/31 02:12:51;;;;;;;1.17;0.50;;;8.30;99.90;;;;;;5099209;28;20115;-70
2023/12/31 02:15:33;;;;;;;1.50;0.50;;;8.30;99.90;;;;;;5103942;28;20061;-70
2023/12/31 02:18:02;;;;;;;1.38;0.50;;;8.20;99.90;;;;;;5103326;28;20160;-70
2023/12/31 02:20:29;;;;;;;4.75;0.80;;;8.30;99.90;;;;;;5097819;28;20052;-70
2023/12/31 02:22:56;;;;;;;2.33;0.40;;;8.20;99.90;;;;;;5102556;28;20036;-70
2023/12/31 02:25:24;;;;;;;3.13;0.60;;;8.20;99.90;;;;;;5100409;28;20081;-70
2023/12/31 02:27:50;;;;;;;1.75;0.55;;;8.20;99.90;;;;;;5098389;28;20474;-70
2023/12/31 02:30:16;;;;;;;1.58;0.70;;;8.30;99.90;;;;;;5097766;28;20040;-70
2023/12/31 02:32:41;;;;;;;1.98;0.63;;;8.20;99.90;;;;;;5100528;28;20513;-70
2023/12/31 02:35:07;;;;;;;1.15;0.70;;;8.20;99.90;;;;;;5103321;28;20038;-70
2023/12/31 02:37:33;;;;;;;4.35;1.08;;;8.20;99.90;;;;;;5135671;27;20130;-70
2023/12/31 02:39:59;;;;;;;3.88;0.70;;;8.20;99.90;;;;;;5100224;28;20529;-70
2023/12/31 02:42:24;;;;;;;1.40;0.80;;;8.20;99.90;;;;;;5099037;28;20047;-70
2023/12/31 02:44:50;;;;;;;1.77;0.70;;;8.10;99.90;;;;;;5098594;28;20043;-70
2023/12/31 02:47:16;;;;;;;1.33;0.60;;;8.10;99.90;;;;;;5102282;28;20032;-70
2023/12/31 02:49:41;;;;;;;1.45;0.70;;;8.20;99.90;;;;;;5098449;28;20085;-70
2023/12/31 02:52:09;;;;;;;4.25;1.20;;;8.10;99.90;;;;;;5102722;28;20497;-70
2023/12/31 02:54:35;;;;;;;1.40;0.70;;;8.20;99.90;;;;;;5134498;27;20081;-70
2023/12/31 02:57:01;;;;;;;1.40;0.63;;;8.20;99.90;;;;;;5093009;28;20036;-70
2023/12/31 02:59:26;;;;;;;2.38;0.73;;;8.20;99.90;;;;;;5131761;27;20052;-70
2023/12/31 03:01:53;;;;;;;2.25;1.15;;;8.20;99.90;;;;;;5093888;28;20078;-70
2023/12/31 03:04:18;;;;;;;1.38;0.95;;;8.20;99.90;;;;;;5100823;28;20122;-70
2023/12/31 03:06:47;;;;;;;1.70;1.10;;;8.10;99.90;;;;;;5135576;27;20118;-70
2023/12/31 03:09:13;;;;;;;1.65;0.98;;;8.20;99.90;;;;;;5102149;28;20040;-70
2023/12/31 03:11:38;;;;;;;1.35;0.90;;;8.10;99.90;;;;;;5126885;27;20047;-70
2023/12/31 03:14:04;;;;;;;1.88;1.00;;;8.10;99.90;;;;;;5099661;28;20134;-70
2023/12/31 03:16:30;;;;;;;1.55;0.90;;;8.10;99.90;;;;;;5134973;27;20397;-70
2023/12/31 03:18:56;;;;;;;2.80;0.93;;;8.10;99.90;;;;;;5100140;28;20044;-70
2023/12/31 03:21:21;;;;;;;1.45;1.15;;;8.00;99.90;;;;;;5103407;28;20031;-70
2023/12/31 03:23:47;;;;;;;2.42;1.27;;;8.00;99.90;;;;;;5138082;27;20417;-70
2023/12/31 03:26:13;;;;;;;2.42;0.82;;;8.10;99.90;;;;;;5103785;28;20074;-70
2023/12/31 03:28:38;;;;;;;1.65;0.82;;;8.00;99.90;;;;;;5096887;28;20043;-70
2023/12/31 03:31:04;;;;;;;2.97;0.90;;;8.10;99.90;;;;;;5101459;27;20032;-70
2023/12/31 03:33:30;;;;;;;1.27;0.60;;;8.10;99.90;;;;;;5138774;27;20458;-70
2023/12/31 03:35:56;;;;;;;1.30;0.65;;;8.20;99.90;;;;;;5108298;27;20389;-70
2023/12/31 03:38:22;;;;;;;2.28;0.82;;;8.20;99.90;;;;;;5102051;27;20038;-70
2023/12/31 03:40:47;;;;;;;1.40;0.73;;;8.20;99.90;;;;;;5138864;27;20039;-70
2023/12/31 03:43:13;;;;;;;3.25;1.17;;;8.20;99.90;;;;;;5087395;28;20193;-70
2023/12/31 03:45:39;;;;;;;1.83;0.68;;;8.20;99.90;;;;;;5106270;27;20039;-70
2023/12/31 03:48:05;;;;;;;0.75;0.60;;;8.20;99.90;;;;;;5140822;27;20415;-70
2023/12/31 03:50:31;;;;;;;1.63;0.68;;;8.20;99.90;;;;;;5107527;27;20042;-70
2023/12/31 03:52:57;;;;;;;0.98;0.52;;;8.20;99.90;;;;;;5104108;27;20478;-70
2023/12/31 03:55:23;;;;;;;2.05;0.70;;;8.20;99.90;;;;;;5105196;27;20394;-70
2023/12/31 03:57:49;;;;;;;2.15;0.63;;;8.30;99.90;;;;;;5106828;27;20131;-70
2023/12/31 04:00:16;;;;;;;1.83;0.80;;;8.30;99.90;;;;;;5106502;27;20122;-70
2023/12/31 04:02:41;;;;;;;1.08;0.68;;;8.30;99.90;;;;;;5105876;27;20126;-70
2023/12/31 04:05:07;;;;;;;3.78;0.82;;;8.30;99.90;;;;;;5139756;27;20119;-70
2023/12/31 04:07:33;;;;;;;2.15;1.25;;;8.30;99.90;;;;;;5101353;28;20119;-70
2023/12/31 04:09:59;;;;;;;3.15;0.63;;;8.30;99.90;;;;;;5130789;27;20085;-70
2023/12/31 04:12:25;;;;;;;1.10;0.60;;;8.30;99.90;;;;;;5102362;28;20439;-70
2023/12/31 04:14:51;;;;;;;1.85;0.82;;;8.30;99.90;;;;;;5133315;27;20040;-70
2023/12/31 04:17:18;;;;;;;1.95;0.95;;;8.30;99.90;;;;;;5135806;27;20051;-70
2023/12/31 04:19:44;;;;;;;2.22;0.90;;;8.30;99.90;;;;;;5135294;27;20043;-70
2023/12/31 04:22:09;;;;;;;1.48;0.90;;;8.30;99.90;;;;;;5106993;27;20039;-70
2023/12/31 04:24:35;;;;;;;2.10;0.80;;;8.30;99.90;;;;;;5104477;28;20632;-70
2023/12/31 04:27:00;;;;;;;1.55;0.90;;;8.30;99.90;;;;;;5132730;27;20066;-70
2023/12/31 04:29:26;;;;;;;2.53;1.13;;;8.40;99.90;;;;;;5136494;27;20059;-70
2023/12/31 04:31:52;;;;;;;2.67;0.70;;;8.40;99.90;;;;;;5132856;27;20122;-70
2023/12/31 04:34:17;;;;;;;2.65;1.17;;;8.30;99.90;;;;;;5135819;27;20099;-70
2023/12/31 04:36:44;;;;;;;2.53;0.88;;;8.40;99.90;;;;;;5103120;28;20027;-70
2023/12/31 04:39:10;;;;;;;0.85;0.60;;;8.40;99.90;;;;;;5104421;28;20489;-70
2023/12/31 04:41:35;;;;;;;3.63;0.70;;;8.40;99.90;;;;;;5133024;27;20450;-70
2023/12/31 04:44:01;;;;;;;4.15;1.10;;;8.40;99.90;;;;;;5103327;28;20036;-70
2023/12/31 04:46:26;;;;;;;1.23;0.90;;;8.30;99.90;;;;;;5102953;28;20126;-70
2023/12/31 04:48:52;;;;;;;1.77;0.88;;;8.40;99.90;;;;;;5099518;28;20040;-70
2023/12/31 04:51:28;;;;;;;4.07;1.25;;;8.40;99.90;;;;;;5100414;28;20054;-70
2023/12/31 04:53:55;;;;;;;3.88;1.00;;;8.40;99.90;;;;;;5103500;28;20082;-70
2023/12/31 04:56:22;;;;;;;1.40;0.90;;;8.30;99.90;;;;;;5104650;27;20542;-70
2023/12/31 04:58:53;;;;;;;3.35;0.90;;;8.30;99.90;;;;;;5105121;28;20053;-70
2023/12/31 05:01:19;;;;;;;1.77;1.02;;;8.30;99.90;;;;;;5102444;28;20192;-70
2023/12/31 05:03:45;;;;;;;1.65;0.95;;;8.30;99.90;;;;;;5106524;28;20043;-70
2023/12/31 05:06:12;;;;;;;6.28;1.13;;;8.30;99.90;;;;;;5101029;28;20048;-70
2023/12/31 05:08:41;;;;;;;2.22;0.93;;;8.30;99.90;;;;;;5136921;27;20047;-70
2023/12/31 05:11:07;;;;;;;1.25;0.80;;;8.30;99.90;;;;;;5139339;27;20096;-70
2023/12/31 05:13:33;;;;;;;1.83;0.95;;;8.30;99.90;;;;;;5103819;28;20110;-70
2023/12/31 05:15:59;;;;;;;2.47;0.88;;;8.20;99.90;;;;;;5100659;28;20036;-70
2023/12/31 05:18:25;;;;;;;1.67;0.80;;;8.20;99.90;;;;;;5102924;28;20492;-69
2023/12/31 05:20:51;;;;;;;2.20;0.90;;;8.20;99.90;;;;;;5100978;28;20047;-70
2023/12/31 05:23:17;;;;;;;1.90;1.15;;;8.30;99.90;;;;;;5102835;28;20046;-70
2023/12/31 05:25:42;;;;;;;2.17;1.00;;;8.20;99.90;;;;;;5104607;28;20044;-70
2023/12/31 05:28:08;;;;;;;1.55;0.73;;;8.30;99.90;;;;;;5102222;28;20441;-70
2023/12/31 05:30:33;;;;;;;3.55;1.08;;;8.30;99.90;;;;;;5103581;28;20031;-70
2023/12/31 05:32:59;;;;;;;6.45;0.85;;;8.30;99.90;;;;;;5098598;28;20085;-70
2023/12/31 05:35:24;;;;;;;1.67;0.80;;;8.30;99.90;;;;;;5100574;28;20035;-70
2023/12/31 05:37:50;;;;;;;1.50;0.50;;;8.20;99.90;;;;;;5102209;28;20028;-70
2023/12/31 05:40:16;;;;;;;1.77;0.70;;;8.20;99.90;;;;;;5104091;27;20481;-70
2023/12/31 05:42:41;;;;;;;1.58;0.65;;;8.30;99.90;;;;;;5103075;27;20043;-70
2023/12/31 05:45:07;;;;;;;1.55;1.02;;;8.20;99.90;;;;;;5102099;28;20080;-70
2023/12/31 05:47:33;;;;;;;3.40;0.77;;;8.20;99.90;;;;;;5095044;28;20036;-70
2023/12/31 05:49:59;;;;;;;3.95;0.98;;;8.20;99.90;;;;;;5104874;27;20138;-70
2023/12/31 05:52:25;;;;;;;2.10;0.95;;;8.20;99.90;;;;;;5099390;28;20511;-70
2023/12/31 05:54:50;;;;;;;5.25;1.25;;;8.40;99.90;;;;;;5105210;28;20069;-70
2023/12/31 05:57:16;;;;;;;3.83;0.77;;;8.20;99.90;;;;;;5139444;27;20070;-70
2023/12/31 05:59:41;;;;;;;2.00;0.70;;;8.20;99.90;;;;;;5101812;28;20561;-70
2023/12/31 06:02:07;;;;;;;2.45;1.00;;;8.20;99.90;;;;;;5099044;28;20586;-70
2023/12/31 06:04:33;;;;;;;2.42;0.90;;;8.20;99.90;;;;;;5100183;28;20470;-70
2023/12/31 06:06:58;;;;;;;1.50;0.88;;;8.20;99.90;;;;;;5104661;28;20039;-70
2023/12/31 06:09:26;;;;;;;2.65;0.90;;;8.10;99.90;;;;;;5135323;27;20050;-70
2023/12/31 06:11:52;;;;;;;1.65;0.77;;;8.10;99.90;;;;;;5098746;27;20044;-70
2023/12/31 06:14:17;;;;;;;1.33;1.08;;;8.20;99.90;;;;;;5098528;28;20043;-70
2023/12/31 06:16:43;;;;;;;4.07;1.00;;;8.20;99.90;;;;;;5082667;28;20044;-70
2023/12/31 06:19:09;;;;;;;4.43;1.05;;;8.10;99.90;;;;;;5100579;28;20036;-70
2023/12/31 06:21:34;;;;;;;1.67;1.10;;;8.20;99.90;;;;;;5103628;27;20032;-70
2023/12/31 06:24:00;;;;;;;2.13;0.80;;;8.10;99.90;;;;;;5101607;28;20558;-70
2023/12/31 06:26:25;;;;;;;4.22;1.63;;;8.10;99.90;;;;;;5099809;28;20161;-70
2023/12/31 06:28:51;;;;;;;2.75;1.25;;;8.10;99.90;;;;;;5098655;28;20031;-70
2023/12/31 06:31:17;;;;;;;1.08;0.90;;;8.10;99.90;;;;;;5137308;27;20123;-70
2023/12/31 06:33:42;;;;;;;4.22;1.20;;;8.10;99.90;;;;;;5095105;28;20035;-70
2023/12/31 06:36:08;;;;;;;2.58;0.90;;;8.10;99.90;;;;;;5100992;28;20082;-70
2023/12/31 06:38:33;;;;;;;3.25;1.15;;;8.10;99.90;;;;;;5103016;28;20586;-70
2023/12/31 06:41:11;;;;;;;2.17;1.17;;;8.10;99.90;;;;;;5098378;28;20100;-70
2023/12/31 06:43:36;;;;;;;10.18;2.38;;;8.10;99.90;;;;;;5099639;28;20036;-70
2023/12/31 06:46:05;;;;;;;2.05;1.20;;;8.10;99.90;;;;;;5101528;28;20042;-70
2023/12/31 06:48:31;;;;;;;2.40;1.30;;;8.10;99.90;;;;;;5099261;28;20038;-70
2023/12/31 06:50:56;;;;;;;1.98;1.00;;;8.10;99.90;;;;;;5133329;27;20429;-70
2023/12/31 06:53:23;;;;;;;2.22;1.25;;;8.40;99.90;;;;;;5104196;28;20098;-70
2023/12/31 06:55:49;;;;;;;6.00;1.38;;;8.20;99.90;;;;;;5137416;27;20482;-70
2023/12/31 06:58:15;;;;;;;1.67;1.27;;;8.20;99.90;;;;;;5136487;27;20038;-70
2023/12/31 07:00:40;;;;;;;3.60;1.08;;;8.20;99.90;;;;;;5137962;27;20044;-70
2023/12/31 07:03:06;;;;;;;2.30;1.27;;;8.20;99.90;;;;;;5137830;27;20046;-69
2023/12/31 07:05:32;;;;;;;4.55;1.25;;;8.20;99.90;;;;;;5103210;28;20040;-70
2023/12/31 07:07:57;;;;;;;1.88;1.08;;;8.20;99.90;;;;;;5105859;28;20047;-69
2023/12/31 07:10:23;;;;;;;2.33;1.17;;;8.20;99.90;;;;;;5103944;28;20046;-70
2023/12/31 07:12:49;;;;;;;1.27;0.75;;;8.20;99.90;;;;;;5138496;27;20097;-70
2023/12/31 07:15:15;;;;;;;2.80;1.00;;;8.20;99.90;;;;;;5105510;27;20074;-70
2023/12/31 07:17:41;;;;;;;2.03;1.20;;;8.20;99.90;;;;;;5134511;27;20118;-70
2023/12/31 07:20:07;;;;;;;1.65;0.77;;;8.10;99.90;;;;;;5139557;27;20552;-70
2023/12/31 07:22:32;;;;;;;2.42;1.20;;;8.20;99.90;;;;;;5102363;27;20123;-70
2023/12/31 07:25:01;;;;;;;3.00;1.30;;;8.20;99.90;;;;;;5103394;27;20028;-70
2023/12/31 07:27:27;;;;;;;1.88;0.88;;;8.20;99.90;;;;;;5103127;28;20532;-70
2023/12/31 07:29:53;;;;;;;2.33;1.00;;;8.30;99.90;;;;;;5103396;27;20046;-70
2023/12/31 07:32:18;;;;;;;2.90;1.23;;;8.30;99.90;;;;;;5106657;27;20717;-70
2023/12/31 07:34:44;;;;;;;1.02;0.90;;;8.30;99.90;;;;;;5107967;27;20047;-70
2023/12/31 07:37:09;;;;;;;3.58;1.33;;;8.30;99.90;;;;;;5102214;27;20061;-70
2023/12/31 07:39:35;;;;;;;2.08;0.90;;;8.30;99.90;;;;;;5104610;27;20041;-70
2023/12/31 07:42:03;;;;;;;2.03;1.15;;;8.40;99.90;;;;;;5101518;27;20378;-70
2023/12/31 07:44:29;;;;;;;1.90;1.27;;;8.40;99.90;;;;;;5104685;28;20381;-70
2023/12/31 07:46:55;;;;;;;1.77;0.95;;;8.40;99.90;;;;;;5106811;27;20039;-70
2023/12/31 07:49:21;;;;;;;2.85;0.90;;;8.50;99.90;;;;;;5103540;27;20043;-70
2023/12/31 07:51:48;;;;;;;2.67;1.20;;;8.50;99.90;;;;;;5103662;28;20670;-70
2023/12/31 07:54:13;;;;;;;1.58;0.80;;;8.50;99.90;;;;;;5136469;27;20081;-70
2023/12/31 07:56:41;;;;;;;1.23;0.85;;;8.60;99.90;;;;;;5103906;28;20073;-70
2023/12/31 07:59:06;;;;;;;1.98;0.88;;;8.60;99.90;;;;;;5139584;27;20047;-70
2023/12/31 08:01:32;;;;;;;1.80;0.90;;;8.60;99.90;;;;;;5104744;27;20042;-70
2023/12/31 08:03:58;;;;;;;3.22;1.20;;;8.60;99.90;;;;;;5103088;28;20458;-70
2023/12/31 08:06:23;;;;;;;1.23;1.00;;;8.70;99.90;;;;;;5100350;28;20035;-70
2023/12/31 08:08:49;;;;;;;2.30;0.90;;;8.60;99.90;;;;;;5101433;28;20033;-70
2023/12/31 08:11:15;;;;;;;3.55;1.05;;;8.60;99.90;;;;;;5104026;27;20116;-70
2023/12/31 08:13:41;;;;;;;1.88;1.20;;;8.70;99.90;;;;;;5133935;27;20474;-70
2023/12/31 08:16:07;;;;;;;2.50;1.25;;;8.70;99.90;;;;;;5106829;27;20071;-70
2023/12/31 08:18:34;;;;;;;1.90;1.10;;;8.70;99.90;;;;;;5101651;28;20040;-70
2023/12/31 08:21:00;;;;;;;2.58;1.00;;;8.70;99.90;;;;;;5104875;27;20040;-70
2023/12/31 08:23:25;;;;;;;2.50;1.00;;;8.70;99.90;;;;;;5105173;28;20027;-70
2023/12/31 08:25:51;;;;;;;1.58;0.77;;;8.80;99.90;;;;;;5111455;27;20039;-70
2023/12/31 08:28:17;;;;;;;2.08;1.38;;;8.70;99.90;;;;;;5122379;27;20048;-70
2023/12/31 08:30:43;;;;;;;3.90;1.40;;;8.70;99.90;;;;;;5105305;27;20118;-70
2023/12/31 08:33:08;;;;;;;1.42;0.90;;;8.70;99.90;;;;;;5103286;28;20085;-70
2023/12/31 08:35:34;;;;;;;2.58;0.82;;;8.70;99.90;;;;;;5105808;28;20486;-70
2023/12/31 08:38:00;;;;;;;1.83;0.90;;;8.80;99.90;;;;;;5104316;28;20031;-70
2023/12/31 08:40:25;;;;;;;3.05;1.10;;;8.70;99.90;;;;;;5108468;27;20040;-70
2023/12/31 08:42:51;;;;;;;2.53;1.15;;;8.80;99.90;;;;;;5104479;27;20047;-70
2023/12/31 08:45:17;;;;;;;1.60;0.90;;;8.70;99.90;;;;;;5110628;27;20048;-70
2023/12/31 08:47:43;;;;;;;1.63;0.90;;;8.80;99.90;;;;;;5107664;27;20042;-70
2023/12/31 08:50:09;;;;;;;2.13;1.00;;;8.80;99.90;;;;;;5104836;28;20043;-70
2023/12/31 08:52:38;;;;;;;2.33;0.93;;;8.80;99.90;;;;;;5105847;27;21503;-70
2023/12/31 08:55:06;;;;;;;2.08;1.13;;;8.90;99.90;;;;;;5101399;27;20075;-70
2023/12/31 08:57:32;;;;;;;2.80;1.00;;;9.00;99.90;;;;;;5106075;28;20066;-70
2023/12/31 08:59:57;;;;;;;2.28;1.20;;;9.00;99.90;;;;;;5103906;27;20071;-70
2023/12/31 09:02:23;;;;;;;2.85;1.10;;;9.00;99.90;;;;;;5099287;28;21841;-70
2023/12/31 09:04:49;;;;;;;3.05;1.02;;;9.10;99.90;;;;;;5105674;27;20032;-70
2023/12/31 09:07:14;;;;;;;2.13;1.33;;;9.00;99.90;;;;;;5102769;27;20505;-70
2023/12/31 09:09:41;;;;;;;1.85;0.90;;;9.00;99.90;;;;;;5135967;27;20047;-70
2023/12/31 09:12:06;;;;;;;1.50;0.95;;;9.10;99.90;;;;;;5104495;27;20371;-69
2023/12/31 09:14:32;;;;;;;1.42;1.05;;;9.10;99.90;;;;;;5103961;27;20070;-70
2023/12/31 09:16:58;;;;;;;1.95;0.77;;;9.10;99.90;;;;;;5104812;27;20397;-70
2023/12/31 09:19:24;;;;;;;2.92;1.13;;;9.20;99.90;;;;;;5103443;27;20043;-70
2023/12/31 09:21:50;;;;;;;1.33;1.00;;;9.20;99.90;;;;;;5134895;27;20109;-70
2023/12/31 09:24:17;;;;;;;2.25;1.20;;;9.10;99.90;;;;;;5101522;27;20078;-70
2023/12/31 09:26:42;;;;;;;1.65;1.00;;;9.20;99.90;;;;;;5103540;27;20129;-70
2023/12/31 09:29:08;;;;;;;1.80;1.25;;;9.20;99.90;;;;;;5135304;27;20031;-70
2023/12/31 09:31:34;;;;;;;1.52;0.80;;;9.30;99.90;;;;;;5101255;28;20265;-70
2023/12/31 09:34:00;;;;;;;3.03;1.52;;;9.30;99.90;;;;;;5103750;27;20050;-70
2023/12/31 09:36:26;;;;;;;1.90;1.20;;;9.20;99.90;;;;;;5100921;27;20039;-70
2023/12/31 09:38:52;;;;;;;1.92;1.25;;;9.30;99.90;;;;;;5104482;27;20036;-70
2023/12/31 09:41:26;;;;;;;2.75;1.30;;;9.20;99.90;;;;;;5100839;27;20048;-70
2023/12/31 09:43:52;;;;;;;2.45;1.45;;;9.40;99.90;;;;;;5104446;28;20035;-70
2023/12/31 09:46:22;;;;;;;3.38;1.50;;;9.30;99.90;;;;;;5103595;27;20031;-70
2023/12/31 09:48:51;;;;;;;2.47;1.23;;;9.30;99.90;;;;;;5098567;28;20043;-70
2023/12/31 09:51:18;;;;;;;1.52;1.38;;;9.40;99.90;;;;;;5104714;27;20093;-70
2023/12/31 09:53:45;;;;;;;2.05;1.30;;;9.40;99.90;;;;;;5099593;27;20520;-70
2023/12/31 09:56:12;;;;;;;2.78;2.03;;;9.40;99.90;;;;;;5103992;28;20038;-70
2023/12/31 09:58:38;;;;;;;2.72;1.20;;;9.40;99.90;;;;;;5134816;27;20043;-70
2023/12/31 10:01:04;;;;;;;2.17;1.50;;;9.40;99.90;;;;;;5100323;28;20054;-70
2023/12/31 10:03:30;;;;;;;3.70;1.98;;;9.40;99.90;;;;;;5099964;27;20497;-70
2023/12/31 10:05:57;;;;;;;2.20;1.40;;;9.40;99.90;;;;;;5104390;28;20088;-70
2023/12/31 10:08:23;;;;;;;2.53;1.65;;;9.50;99.90;;;;;;5097440;28;20036;-70
2023/12/31 10:10:53;;;;;;;2.67;1.75;;;9.50;99.90;;;;;;5100292;28;20039;-70
2023/12/31 10:13:19;;;;;;;2.33;2.05;;;9.50;99.90;;;;;;5102509;28;20434;-70
2023/12/31 10:15:45;;;;;;;2.85;1.38;;;9.60;99.90;;;;;;5097927;27;20074;-70
2023/12/31 10:18:11;;;;;;;2.83;1.92;;;9.60;99.90;;;;;;5130142;27;20547;-70
2023/12/31 10:20:38;;;;;;;2.35;1.50;;;9.60;99.90;;;;;;5105128;27;20059;-70
2023/12/31 10:23:04;;;;;;;2.20;1.92;;;9.60;99.90;;;;;;5100697;27;20134;-70
2023/12/31 10:25:30;;;;;;;2.75;1.95;;;9.60;99.90;;;;;;5100208;27;20481;-70
2023/12/31 10:27:57;;;;;;;2.38;1.35;;;9.60;99.90;;;;;;5097022;28;20039;-70
2023/12/31 10:30:22;;;;;;;2.10;1.58;;;9.70;99.90;;;;;;5131200;27;20048;-70
2023/12/31 10:32:49;;;;;;;2.10;1.77;;;9.70;99.90;;;;;;5101621;27;20049;-70
2023/12/31 10:35:20;;;;;;;2.10;1.90;;;9.80;99.90;;;;;;5101063;28;20044;-70
2023/12/31 10:37:45;;;;;;;4.05;1.67;;;9.70;99.90;;;;;;5101965;28;20564;-70
2023/12/31 10:40:22;;;;;;;2.10;1.60;;;9.80;99.90;;;;;;5099633;27;20123;-70
2023/12/31 10:42:58;;;;;;;2.30;1.73;;;9.80;99.90;;;;;;5099306;28;20062;-70
2023/12/31 10:45:23;;;;;;;4.38;2.05;;;9.90;99.90;;;;;;5102796;27;20534;-70
2023/12/31 10:47:56;;;;;;;1.83;1.65;;;10.00;99.90;;;;;;5097989;28;20036;-70
2023/12/31 10:50:25;;;;;;;5.15;2.65;;;9.90;99.90;;;;;;5134133;27;20047;-70
2023/12/31 10:53:01;;;;;;;3.08;2.60;;;10.00;99.90;;;;;;5098395;28;20418;-70
2023/12/31 10:55:27;;;;;;;;;;;10.00;99.90;;;;;;5101151;28;20047;-70
2023/12/31 10:57:53;;;;;;;5.32;2.15;;;10.00;99.90;;;;;;5131202;27;19916;-70
2023/12/31 11:00:19;;;;;;;3.78;2.58;;;10.00;99.90;;;;;;5129401;27;20059;-70
2023/12/31 11:02:46;;;;;;;2.78;1.88;;;10.00;99.90;;;;;;5097826;28;20060;-70
2023/12/31 11:05:13;;;;;;;2.60;1.63;;;10.00;99.90;;;;;;5132060;27;20049;-70
2023/12/31 11:07:40;;;;;;;2.65;1.63;;;10.00;99.90;;;;;;5103137;27;20039;-71
2023/12/31 11:10:08;;;;;;;2.55;1.38;;;10.00;99.90;;;;;;5099660;28;20028;-71
2023/12/31 11:12:34;;;;;;;2.47;1.88;;;9.90;99.90;;;;;;5101449;28;20062;-70
2023/12/31 11:15:05;;;;;;;2.40;1.80;;;10.00;99.90;;;;;;5100244;28;20047;-71
2023/12/31 11:18:08;;;;;;;1.92;1.52;;;9.80;99.90;;;;;;5097521;28;20142;-71
2023/12/31 11:20:54;;;;;;;1.73;0.98;;;9.80;99.90;;;;;;5100489;28;20044;-70
2023/12/31 11:23:38;;;;;;;2.70;1.53;;;9.70;99.90;;;;;;5131904;27;20099;-70
2023/12/31 11:26:07;;;;;;;1.17;0.88;;;9.70;99.90;;;;;;5103685;28;20084;-70
2023/12/31 11:28:35;;;;;;;2.33;1.60;;;9.70;99.90;;;;;;5101117;28;20047;-70
2023/12/31 11:31:03;;;;;;;10.93;9.90;;;9.60;99.90;;;;;;5098839;28;20378;-70
2023/12/31 11:33:34;;;;;;;2.42;0.50;;;9.60;99.90;;;;;;5098986;27;20058;-71
2023/12/31 11:36:05;;;;;;;1.52;0.40;;;9.50;99.90;;;;;;5098363;28;20075;-71
2023/12/31 11:38:56;;;;;;;0.85;0.20;;;9.20;99.90;;;;;;5100761;27;20541;-71
2023/12/31 11:41:24;;;;;;;36.42;32.92;;;8.90;99.90;;;;;;5101248;28;20137;-70
2023/12/31 11:43:53;;;;;;;12.82;11.52;;;8.80;99.90;;;;;;5103343;27;20115;-70
2023/12/31 11:46:38;;;;;;;4.82;3.70;;;8.70;99.90;;;;;;5133706;27;20075;-70
2023/12/31 11:49:09;;;;;;;1.83;1.00;;;8.70;99.90;;;;;;5104304;27;20097;-70
2023/12/31 11:51:56;;;;;;;2.55;0.70;;;8.80;99.90;;;;;;5133746;27;20693;-71
2023/12/31 11:54:39;;;;;;;2.05;0.65;;;8.70;99.90;;;;;;5134663;27;20405;-70
2023/12/31 11:57:06;;;;;;;1.60;0.30;;;8.70;99.90;;;;;;5106111;27;20063;-70
2023/12/31 11:59:47;;;;;;;0.82;0.20;;;8.70;99.90;;;;;;5102774;27;20130;-70
2023/12/31 12:02:14;;;;;;;2.20;0.43;;;8.50;99.90;;;;;;5105706;28;20390;-70
2023/12/31 12:04:40;;;;;;;0.90;0.40;;;8.50;99.90;;;;;;5102267;27;20055;-70
2023/12/31 12:07:06;;;;;;;1.83;0.30;;;8.50;99.90;;;;;;5102245;27;21013;-70
2023/12/31 12:09:33;;;;;;;1.00;0.20;;;8.40;99.90;;;;;;5103719;27;20761;-70
2023/12/31 12:12:06;;;;;;;1.45;0.30;;;8.40;99.90;;;;;;5105455;27;20040;-70
2023/12/31 12:14:31;;;;;;;1.23;0.20;;;8.40;99.90;;;;;;5104811;27;20032;-70
2023/12/31 12:16:59;;;;;;;1.60;0.32;;;8.50;99.90;;;;;;5103052;27;20050;-70
2023/12/31 12:19:27;;;;;;;2.35;0.30;;;8.60;99.90;;;;;;5102769;28;20513;-70
2023/12/31 12:21:54;;;;;;;2.85;0.30;;;8.70;99.90;;;;;;5101688;27;20059;-70
2023/12/31 12:24:20;;;;;;;1.10;0.30;;;8.70;99.90;;;;;;5085064;27;20736;-70
2023/12/31 12:26:50;;;;;;;1.05;0.30;;;8.80;99.90;;;;;;5122236;27;20048;-70
2023/12/31 12:29:17;;;;;;;1.80;0.30;;;8.80;99.90;;;;;;5102374;27;20366;-70
2023/12/31 12:31:47;;;;;;;1.33;0.20;;;8.80;99.90;;;;;;5103104;27;20067;-70
2023/12/31 12:34:15;;;;;;;1.23;0.30;;;9.30;99.90;;;;;;5100711;27;20047;-70
2023/12/31 12:36:42;;;;;;;0.73;0.30;;;8.80;99.90;;;;;;5102056;27;20047;-70
2023/12/31 12:39:14;;;;;;;2.17;0.57;;;8.90;99.90;;;;;;5104786;27;20062;-70
2023/12/31 12:41:52;;;;;;;0.40;0.20;;;8.90;99.90;;;;;;5101779;28;20127;-70
2023/12/31 12:44:20;;;;;;;1.00;0.30;;;8.90;99.90;;;;;;5135648;27;20670;-70
2023/12/31 12:46:48;;;;;;;1.13;0.30;;;8.90;99.90;;;;;;5133345;27;20044;-71
2023/12/31 12:49:14;;;;;;;2.47;0.60;;;8.90;99.90;;;;;;5133301;27;20047;-71
2023/12/31 12:51:41;;;;;;;0.70;0.50;;;8.90;99.90;;;;;;5087691;27;20562;-70
2023/12/31 12:54:08;;;;;;;1.70;0.30;;;8.90;99.90;;;;;;5131429;27;20051;-71
2023/12/31 12:56:34;;;;;;;1.08;0.50;;;8.90;99.90;;;;;;5135583;27;20036;-71